Time;durP1;ratioP1;P1;durP2;ratioP2;P2;SDS_P1;SDS_P2;PMS_P1;PMS_P2;Temp;Humidity;BMP_temperature;BMP_pressure;BME280_temperature;BME280_humidity;BME280_pressure;Samples;Min_cycle;Max_cycle;Signal;HPM_P1;HPM_P2
2021/08/12 00:00:11;;;;;;;21.65;11.02;;;15.90;99.90;;;;;;6163097;23;20019;-85
2021/08/12 00:02:36;;;;;;;21.00;11.75;;;15.90;99.90;;;;;;6211888;23;20012;-85
2021/08/12 00:05:08;;;;;;;11.20;9.95;;;15.90;99.90;;;;;;6211736;23;20040;-85
2021/08/12 00:07:33;;;;;;;12.65;10.55;;;15.90;99.90;;;;;;6162048;23;20023;-85
2021/08/12 00:10:03;;;;;;;9.50;8.23;;;15.80;99.90;;;;;;6186161;23;20011;-87
2021/08/12 00:12:29;;;;;;;8.55;7.75;;;15.80;99.90;;;;;;6166444;23;20027;-87
2021/08/12 00:14:55;;;;;;;8.18;7.30;;;15.70;99.90;;;;;;6193579;23;20186;-87
2021/08/12 00:17:21;;;;;;;9.52;8.63;;;15.70;99.90;;;;;;6191618;23;20012;-86
2021/08/12 00:19:47;;;;;;;9.57;8.07;;;15.60;99.90;;;;;;6192165;23;20023;-86
2021/08/12 00:22:13;;;;;;;8.70;7.80;;;15.50;99.90;;;;;;6163873;23;20008;-87
2021/08/12 00:24:39;;;;;;;8.80;7.85;;;15.50;99.90;;;;;;6191151;23;20022;-86
2021/08/12 00:27:05;;;;;;;9.90;8.85;;;15.40;99.90;;;;;;6166500;23;20039;-87
2021/08/12 00:29:31;;;;;;;12.55;10.15;;;15.40;99.90;;;;;;6194471;23;20322;-86
2021/08/12 00:31:56;;;;;;;12.35;10.55;;;15.30;99.90;;;;;;6190176;23;20019;-86
2021/08/12 00:34:23;;;;;;;19.48;14.93;;;15.30;99.90;;;;;;6169067;23;20012;-86
2021/08/12 00:36:49;;;;;;;19.10;14.45;;;15.30;99.90;;;;;;6222589;23;20019;-86
2021/08/12 00:39:17;;;;;;;19.08;15.23;;;15.30;99.90;;;;;;6145528;23;20047;-86
2021/08/12 00:41:43;;;;;;;19.60;15.45;;;15.30;99.90;;;;;;6193123;23;20004;-86
2021/08/12 00:44:09;;;;;;;19.30;16.80;;;15.30;99.90;;;;;;6191254;23;20019;-87
2021/08/12 00:46:35;;;;;;;21.15;17.48;;;15.30;99.90;;;;;;6213933;23;20012;-87
2021/08/12 00:49:01;;;;;;;21.63;17.88;;;15.30;99.90;;;;;;6190692;23;20083;-85
2021/08/12 00:51:28;;;;;;;22.40;17.20;;;15.30;99.90;;;;;;6164392;23;20085;-86
2021/08/12 00:53:55;;;;;;;18.25;16.00;;;15.30;99.90;;;;;;6188580;23;20019;-86
2021/08/12 00:56:21;;;;;;;16.98;15.18;;;15.30;99.90;;;;;;6189520;23;20023;-86
2021/08/12 00:58:46;;;;;;;20.35;14.80;;;15.30;99.90;;;;;;6190086;23;20012;-86
2021/08/12 01:01:13;;;;;;;16.13;14.43;;;15.30;99.90;;;;;;6215466;23;20016;-87
2021/08/12 01:03:39;;;;;;;17.27;13.85;;;15.30;99.90;;;;;;6165647;23;20009;-85
2021/08/12 01:06:07;;;;;;;16.08;14.48;;;15.20;99.90;;;;;;6189733;23;20066;-86
2021/08/12 01:08:42;;;;;;;15.98;13.88;;;15.20;99.90;;;;;;6163647;23;20456;-87
2021/08/12 01:11:20;;;;;;;18.20;13.45;;;15.20;99.90;;;;;;6213132;23;20027;-87
2021/08/12 01:13:52;;;;;;;18.35;13.98;;;15.10;99.90;;;;;;6213372;23;20035;-87
2021/08/12 01:16:21;;;;;;;26.75;17.17;;;15.10;99.90;;;;;;6225411;23;20008;-87
2021/08/12 01:19:01;;;;;;;20.45;18.05;;;15.10;99.90;;;;;;6215402;23;20115;-87
2021/08/12 01:21:50;;;;;;;20.20;18.08;;;15.10;99.90;;;;;;6215636;23;20436;-86
2021/08/12 01:24:16;;;;;;;24.00;21.50;;;15.00;99.90;;;;;;6213733;23;20098;-86
2021/08/12 01:26:44;;;;;;;19.67;16.73;;;15.00;99.90;;;;;;6187013;23;20089;-87
2021/08/12 01:29:18;;;;;;;20.25;17.77;;;15.00;99.90;;;;;;6235035;23;20070;-87
2021/08/12 01:32:09;;;;;;;19.95;15.45;;;15.00;99.90;;;;;;6208107;23;20012;-87
2021/08/12 01:34:53;;;;;;;17.60;15.55;;;14.90;99.90;;;;;;6211059;23;20022;-86
2021/08/12 01:37:21;;;;;;;18.80;16.05;;;14.90;99.90;;;;;;6212594;23;20020;-86
2021/08/12 01:39:49;;;;;;;18.38;16.48;;;14.90;99.90;;;;;;6215366;23;20016;-87
2021/08/12 01:42:16;;;;;;;21.30;17.70;;;14.80;99.90;;;;;;6186041;23;20048;-86
2021/08/12 01:44:43;;;;;;;18.38;16.48;;;14.80;99.90;;;;;;6187621;23;20019;-86
2021/08/12 01:47:10;;;;;;;19.40;17.30;;;14.80;99.90;;;;;;6215708;23;20106;-87
2021/08/12 01:49:40;;;;;;;19.00;17.00;;;14.70;99.90;;;;;;6163581;23;20043;-87
2021/08/12 01:52:07;;;;;;;19.30;17.30;;;14.70;99.90;;;;;;6212610;23;20016;-86
2021/08/12 01:54:36;;;;;;;21.33;17.67;;;14.60;99.90;;;;;;6187168;23;20015;-85
2021/08/12 01:57:02;;;;;;;22.10;17.35;;;14.60;99.90;;;;;;6213651;23;20019;-86
2021/08/12 01:59:31;;;;;;;21.70;19.38;;;14.60;99.90;;;;;;6186663;23;20012;-85
2021/08/12 02:01:57;;;;;;;25.15;20.83;;;14.60;99.90;;;;;;6212097;23;20090;-86
2021/08/12 02:04:25;;;;;;;32.53;25.85;;;14.60;99.90;;;;;;6161365;23;20023;-85
2021/08/12 02:06:51;;;;;;;30.90;25.40;;;14.50;99.90;;;;;;6215016;23;20020;-86
2021/08/12 02:09:17;;;;;;;29.02;23.92;;;14.50;99.90;;;;;;6177682;22;20004;-83
2021/08/12 02:11:44;;;;;;;34.83;26.63;;;14.60;99.90;;;;;;6188585;22;20015;-84
2021/08/12 02:14:10;;;;;;;35.88;26.80;;;14.60;99.90;;;;;;6246489;22;20031;-86
2021/08/12 02:16:36;;;;;;;36.92;27.25;;;14.60;99.90;;;;;;6189375;23;20011;-85
2021/08/12 02:19:05;;;;;;;34.10;26.50;;;14.50;99.90;;;;;;6192077;23;20243;-86
2021/08/12 02:21:41;;;;;;;37.75;28.73;;;14.60;99.90;;;;;;6215501;23;20009;-86
2021/08/12 02:24:30;;;;;;;34.83;28.85;;;14.60;99.90;;;;;;6190382;23;20055;-85
2021/08/12 02:27:09;;;;;;;33.60;27.98;;;14.60;99.90;;;;;;6198654;23;20020;-85
2021/08/12 02:29:35;;;;;;;33.42;28.73;;;14.60;99.90;;;;;;6215242;23;20518;-85
2021/08/12 02:32:04;;;;;;;30.05;25.33;;;14.60;99.90;;;;;;6190470;23;20111;-85
2021/08/12 02:34:31;;;;;;;32.38;27.60;;;14.60;99.90;;;;;;6217024;23;20012;-86
2021/08/12 02:36:59;;;;;;;30.38;24.77;;;14.60;99.90;;;;;;6192524;23;20016;-86
2021/08/12 02:39:27;;;;;;;29.17;24.33;;;14.60;99.90;;;;;;6194236;23;20348;-86
2021/08/12 02:41:54;;;;;;;29.73;24.80;;;14.50;99.90;;;;;;6220214;23;20027;-86
2021/08/12 02:44:20;;;;;;;34.60;27.02;;;14.50;99.90;;;;;;6219763;23;20062;-85
2021/08/12 02:46:48;;;;;;;28.48;25.30;;;14.50;99.90;;;;;;6220422;23;20018;-86
2021/08/12 02:49:15;;;;;;;31.88;26.90;;;14.50;99.90;;;;;;6219412;23;20062;-86
2021/08/12 02:51:42;;;;;;;29.60;26.15;;;14.50;99.90;;;;;;6146146;23;20141;-86
2021/08/12 02:54:09;;;;;;;31.38;25.77;;;14.40;99.90;;;;;;6219539;23;20009;-86
2021/08/12 02:56:36;;;;;;;31.65;24.65;;;14.50;99.90;;;;;;6193031;23;20008;-86
2021/08/12 02:59:04;;;;;;;34.92;25.90;;;14.40;99.90;;;;;;6217412;23;20016;-86
2021/08/12 03:01:33;;;;;;;30.35;25.33;;;14.40;99.90;;;;;;6191198;23;20392;-86
2021/08/12 03:04:01;;;;;;;30.88;25.85;;;14.40;99.90;;;;;;6217142;23;20012;-86
2021/08/12 03:06:28;;;;;;;31.02;25.55;;;14.40;99.90;;;;;;6193936;23;20008;-86
2021/08/12 03:08:55;;;;;;;32.03;25.40;;;14.40;99.90;;;;;;6218702;23;20023;-86
2021/08/12 03:11:40;;;;;;;31.80;24.92;;;14.40;99.90;;;;;;6192916;23;20019;-86
2021/08/12 03:14:06;;;;;;;29.23;25.35;;;14.40;99.90;;;;;;6216480;23;20049;-86
2021/08/12 03:16:33;;;;;;;29.67;26.25;;;14.40;99.90;;;;;;6213016;23;20023;-85
2021/08/12 03:18:59;;;;;;;33.22;27.75;;;14.40;99.90;;;;;;6214772;23;20530;-87
2021/08/12 03:21:25;;;;;;;34.53;28.73;;;14.40;99.90;;;;;;6215606;23;20436;-86
2021/08/12 03:23:52;;;;;;;35.95;28.27;;;14.40;99.90;;;;;;6212132;23;20019;-86
2021/08/12 03:26:18;;;;;;;34.03;28.85;;;14.40;99.90;;;;;;6214025;23;20437;-86
2021/08/12 03:28:44;;;;;;;41.60;29.63;;;14.40;99.90;;;;;;6163314;23;20012;-86
2021/08/12 03:31:11;;;;;;;37.53;30.30;;;14.40;99.90;;;;;;6214547;23;20039;-87
2021/08/12 03:37:18;;;;;;;40.17;30.55;;;14.40;99.90;;;;;;6246284;23;20047;-86
2021/08/12 03:39:43;;;;;;;39.22;30.20;;;14.40;99.90;;;;;;6192700;23;20012;-86
2021/08/12 03:42:10;;;;;;;35.78;28.75;;;14.40;99.90;;;;;;6165822;23;20015;-86
2021/08/12 03:44:36;;;;;;;33.72;29.50;;;14.40;99.90;;;;;;6216930;23;20123;-86
2021/08/12 03:47:02;;;;;;;40.92;30.20;;;14.40;99.90;;;;;;6192606;23;20031;-86
2021/08/12 03:49:28;;;;;;;37.63;31.15;;;14.30;99.90;;;;;;6191213;23;20073;-86
2021/08/12 03:51:53;;;;;;;32.38;27.13;;;14.40;99.90;;;;;;6191832;23;20437;-86
2021/08/12 03:54:19;;;;;;;39.72;28.90;;;14.40;99.90;;;;;;6188900;23;20012;-87
2021/08/12 03:56:45;;;;;;;32.92;28.13;;;14.40;99.90;;;;;;6165244;23;20012;-86
2021/08/12 03:59:11;;;;;;;36.83;29.38;;;14.40;99.90;;;;;;6163404;23;20016;-86
2021/08/12 04:01:37;;;;;;;37.38;30.90;;;14.40;99.90;;;;;;6213379;23;20538;-85
2021/08/12 04:04:03;;;;;;;41.45;33.63;;;14.30;99.90;;;;;;6165182;23;20036;-85
2021/08/12 04:06:29;;;;;;;45.20;34.65;;;14.30;99.90;;;;;;6216516;23;20343;-85
2021/08/12 04:08:56;;;;;;;43.35;34.88;;;14.40;99.90;;;;;;6190300;23;20103;-85
2021/08/12 04:11:22;;;;;;;44.65;33.88;;;14.30;99.90;;;;;;6166254;23;20054;-86
2021/08/12 04:13:47;;;;;;;39.28;30.75;;;14.30;99.90;;;;;;6164877;23;20019;-85
2021/08/12 04:16:13;;;;;;;41.55;32.22;;;14.30;99.90;;;;;;6190916;23;20012;-85
2021/08/12 04:18:39;;;;;;;43.22;34.50;;;14.30;99.90;;;;;;6195019;23;20529;-86
2021/08/12 04:21:06;;;;;;;42.85;34.63;;;14.30;99.90;;;;;;6166462;23;20098;-85
2021/08/12 04:23:32;;;;;;;44.97;35.92;;;14.30;99.90;;;;;;6137843;23;20019;-85
2021/08/12 04:25:58;;;;;;;49.35;37.78;;;14.30;99.90;;;;;;6166037;23;20101;-84
2021/08/12 04:28:24;;;;;;;46.15;35.50;;;14.30;99.90;;;;;;6217181;22;20047;-84
2021/08/12 04:30:50;;;;;;;45.00;34.42;;;14.30;99.90;;;;;;6208051;23;20488;-85
2021/08/12 04:33:17;;;;;;;51.63;37.05;;;14.30;99.90;;;;;;6191184;23;20070;-85
2021/08/12 04:35:43;;;;;;;48.17;35.83;;;14.30;99.90;;;;;;6189423;23;20011;-86
2021/08/12 04:38:09;;;;;;;47.95;37.35;;;14.30;99.90;;;;;;6189641;23;20012;-86
2021/08/12 04:40:35;;;;;;;48.50;36.80;;;14.30;99.90;;;;;;6214868;23;20012;-86
2021/08/12 04:43:01;;;;;;;47.00;37.83;;;14.30;99.90;;;;;;6164828;23;20499;-86
2021/08/12 04:45:30;;;;;;;52.15;38.72;;;14.40;99.90;;;;;;6164667;23;20012;-86
2021/08/12 04:48:03;;;;;;;50.22;39.60;;;14.30;99.90;;;;;;6187128;23;20043;-86
2021/08/12 04:50:31;;;;;;;55.88;39.50;;;14.40;99.90;;;;;;6213826;23;20039;-85
2021/08/12 04:52:57;;;;;;;45.13;36.42;;;14.40;99.90;;;;;;6214196;23;20298;-85
2021/08/12 04:55:23;;;;;;;52.10;39.42;;;14.40;99.90;;;;;;6188893;23;20018;-86
2021/08/12 04:57:49;;;;;;;46.28;37.30;;;14.40;99.90;;;;;;6188418;23;20039;-86
2021/08/12 05:00:15;;;;;;;53.10;40.78;;;14.40;99.90;;;;;;6164123;23;20020;-85
2021/08/12 05:02:41;;;;;;;55.40;40.72;;;14.50;99.90;;;;;;6162490;23;20010;-86
2021/08/12 05:05:08;;;;;;;52.88;40.72;;;14.50;99.90;;;;;;6189562;23;20028;-87
2021/08/12 05:07:34;;;;;;;51.55;39.72;;;14.50;99.90;;;;;;6214829;23;20174;-86
2021/08/12 05:10:01;;;;;;;51.92;40.47;;;14.60;99.90;;;;;;6142514;23;20020;-86
2021/08/12 05:12:27;;;;;;;51.50;38.45;;;14.60;99.90;;;;;;6189444;23;20045;-87
2021/08/12 05:14:52;;;;;;;45.67;36.65;;;14.70;99.90;;;;;;6163357;23;20519;-87
2021/08/12 05:17:18;;;;;;;48.90;39.03;;;14.70;99.90;;;;;;6187360;23;20162;-86
2021/08/12 05:19:44;;;;;;;49.55;39.28;;;14.80;99.90;;;;;;6219303;23;20064;-86
2021/08/12 05:22:11;;;;;;;46.85;36.03;;;14.80;99.90;;;;;;6195516;23;20012;-86
2021/08/12 05:24:38;;;;;;;46.13;38.40;;;14.90;99.90;;;;;;6192563;23;20019;-86
2021/08/12 05:27:04;;;;;;;50.38;37.25;;;14.90;99.90;;;;;;6214998;23;20019;-86
2021/08/12 05:29:30;;;;;;;54.67;39.17;;;14.90;99.90;;;;;;6165413;23;20046;-86
2021/08/12 05:31:56;;;;;;;44.20;36.63;;;15.00;99.90;;;;;;6191754;23;20016;-86
2021/08/12 05:34:22;;;;;;;50.40;37.63;;;15.10;99.90;;;;;;6167214;23;20019;-85
2021/08/12 05:36:47;;;;;;;50.15;39.47;;;15.00;99.90;;;;;;6164114;23;20020;-85
2021/08/12 05:39:13;;;;;;;56.28;40.53;;;15.10;99.90;;;;;;6212120;23;20086;-86
2021/08/12 05:41:41;;;;;;;51.50;39.65;;;15.10;99.90;;;;;;6138087;23;20095;-86
2021/08/12 05:44:07;;;;;;;55.17;40.47;;;15.10;99.90;;;;;;6188183;23;20034;-86
2021/08/12 05:46:33;;;;;;;51.33;39.10;;;15.20;99.90;;;;;;6189866;23;20083;-87
2021/08/12 05:48:59;;;;;;;45.95;37.90;;;15.20;99.90;;;;;;6188434;23;20097;-87
2021/08/12 05:51:24;;;;;;;52.15;39.85;;;15.30;99.90;;;;;;6166517;23;20061;-85
2021/08/12 05:53:50;;;;;;;48.15;37.88;;;15.30;99.90;;;;;;6168082;23;20012;-86
2021/08/12 05:56:16;;;;;;;51.63;39.42;;;15.30;99.90;;;;;;6192266;23;20016;-86
2021/08/12 05:58:44;;;;;;;46.67;37.28;;;15.30;99.90;;;;;;6192846;23;20122;-86
2021/08/12 06:01:10;;;;;;;47.30;38.65;;;15.30;99.90;;;;;;6215452;23;20044;-85
2021/08/12 06:03:36;;;;;;;51.35;38.67;;;15.30;99.90;;;;;;6216626;23;20016;-86
2021/08/12 06:06:02;;;;;;;52.78;39.88;;;15.30;99.90;;;;;;6188754;23;20314;-85
2021/08/12 06:09:12;;;;;;;51.60;40.58;;;15.40;99.90;;;;;;6168783;23;20096;-86
2021/08/12 06:12:06;;;;;;;49.03;38.92;;;15.40;99.90;;;;;;6207451;23;20464;-87
2021/08/12 06:14:41;;;;;;;50.17;38.95;;;15.40;99.90;;;;;;6171961;23;20039;-86
2021/08/12 06:17:07;;;;;;;50.35;39.25;;;15.50;99.90;;;;;;6198849;23;20012;-85
2021/08/12 06:19:34;;;;;;;48.75;37.10;;;15.50;99.90;;;;;;6168856;23;20019;-86
2021/08/12 06:22:00;;;;;;;45.88;33.88;;;15.60;99.90;;;;;;6162699;23;20437;-87
2021/08/12 06:24:26;;;;;;;49.70;34.15;;;15.70;99.90;;;;;;6168746;23;20355;-86
2021/08/12 06:26:52;;;;;;;41.47;32.72;;;15.70;99.90;;;;;;6187696;23;20027;-85
2021/08/12 06:29:18;;;;;;;41.28;31.75;;;15.70;99.90;;;;;;6164887;23;20020;-85
2021/08/12 06:31:44;;;;;;;40.80;32.03;;;15.80;99.90;;;;;;6193484;23;20024;-85
2021/08/12 06:34:10;;;;;;;42.83;32.55;;;15.80;99.90;;;;;;6214949;23;20012;-86
2021/08/12 06:36:36;;;;;;;41.65;32.97;;;15.90;99.90;;;;;;6192034;23;20073;-87
2021/08/12 06:39:02;;;;;;;38.08;31.67;;;16.00;99.90;;;;;;6165953;23;20034;-86
2021/08/12 06:41:29;;;;;;;37.92;29.75;;;16.00;99.90;;;;;;6160598;23;20025;-86
2021/08/12 06:43:55;;;;;;;40.60;29.48;;;16.00;99.90;;;;;;6213340;23;20070;-87
2021/08/12 06:46:22;;;;;;;39.17;29.90;;;16.10;99.90;;;;;;6210400;23;20008;-86
2021/08/12 06:48:51;;;;;;;38.53;30.00;;;16.10;99.90;;;;;;6224826;22;20026;-84
2021/08/12 06:51:16;;;;;;;37.75;29.98;;;16.20;99.90;;;;;;6270182;22;20008;-85
2021/08/12 06:53:44;;;;;;;36.45;28.52;;;16.20;99.90;;;;;;6175485;23;20107;-86
2021/08/12 06:56:10;;;;;;;35.40;28.35;;;16.20;99.90;;;;;;6184385;23;20044;-85
2021/08/12 06:58:36;;;;;;;37.85;28.25;;;16.30;99.90;;;;;;6136589;23;20012;-84
2021/08/12 07:01:02;;;;;;;38.65;28.45;;;16.40;99.90;;;;;;6211257;23;20016;-85
2021/08/12 07:03:33;;;;;;;36.13;29.42;;;16.40;99.90;;;;;;6163401;23;20039;-88
2021/08/12 07:05:59;;;;;;;36.78;28.67;;;16.50;99.90;;;;;;6141302;23;20024;-87
2021/08/12 07:08:25;;;;;;;35.50;25.90;;;16.60;99.90;;;;;;6189031;23;20016;-88
2021/08/12 07:10:51;;;;;;;33.42;26.65;;;16.70;99.90;;;;;;6213129;23;20008;-83
2021/08/12 07:13:18;;;;;;;34.22;24.85;;;16.90;99.90;;;;;;6188631;23;20023;-84
2021/08/12 07:15:43;;;;;;;35.35;25.40;;;17.00;99.90;;;;;;6164356;23;20016;-87
2021/08/12 07:18:09;;;;;;;33.17;24.27;;;17.10;99.90;;;;;;6187662;23;20070;-87
2021/08/12 07:20:36;;;;;;;28.98;22.75;;;17.30;99.90;;;;;;6163946;23;20008;-87
2021/08/12 07:23:02;;;;;;;35.50;24.15;;;17.40;99.90;;;;;;6167014;22;20023;-87
2021/08/12 07:25:28;;;;;;;33.65;25.35;;;17.40;99.90;;;;;;6219543;22;20012;-86
2021/08/12 07:28:12;;;;;;;30.90;24.13;;;17.50;99.90;;;;;;6217937;22;20023;-85
2021/08/12 07:30:40;;;;;;;32.10;23.42;;;17.60;99.90;;;;;;6191718;22;20090;-85
2021/08/12 07:33:06;;;;;;;32.72;23.75;;;17.70;99.90;;;;;;6240939;22;20035;-86
2021/08/12 07:35:33;;;;;;;31.50;23.65;;;17.80;99.90;;;;;;6214992;22;20008;-87
2021/08/12 07:37:59;;;;;;;31.45;23.95;;;17.80;99.90;;;;;;6238615;22;20007;-86
2021/08/12 07:40:27;;;;;;;33.10;23.05;;;17.80;99.90;;;;;;6191876;22;20023;-86
2021/08/12 07:42:52;;;;;;;31.08;22.42;;;17.90;99.90;;;;;;6170011;22;20012;-88
2021/08/12 07:45:18;;;;;;;28.73;22.83;;;18.00;99.90;;;;;;6194522;22;20019;-88
2021/08/12 07:47:44;;;;;;;28.60;22.05;;;18.10;99.90;;;;;;6219052;22;20023;-87
2021/08/12 07:50:11;;;;;;;28.27;21.42;;;18.20;99.90;;;;;;6194698;22;20463;-86
2021/08/12 07:52:41;;;;;;;26.27;20.85;;;18.40;99.90;;;;;;6219880;22;20417;-86
2021/08/12 07:55:09;;;;;;;27.85;20.10;;;18.50;99.90;;;;;;6243157;22;20445;-89
2021/08/12 07:57:34;;;;;;;24.75;19.13;;;18.70;99.90;;;;;;6219016;22;20019;-88
2021/08/12 08:00:00;;;;;;;24.63;18.88;;;18.80;99.90;;;;;;6244588;22;20468;-85
2021/08/12 08:02:26;;;;;;;28.05;18.45;;;19.00;99.90;;;;;;6219068;22;20119;-85
2021/08/12 08:04:52;;;;;;;25.92;17.75;;;19.10;99.50;;;;;;6194520;22;20030;-85
2021/08/12 08:07:18;;;;;;;23.83;18.13;;;19.20;99.20;;;;;;6194653;22;20039;-85
2021/08/12 08:09:43;;;;;;;22.13;18.02;;;19.30;99.20;;;;;;6194389;22;20019;-84
2021/08/12 08:12:09;;;;;;;22.98;17.05;;;19.40;98.70;;;;;;6192849;22;20065;-86
2021/08/12 08:14:36;;;;;;;22.02;16.15;;;19.60;98.40;;;;;;6219028;22;20048;-86
2021/08/12 08:17:02;;;;;;;21.75;16.23;;;19.60;98.20;;;;;;6216940;22;20022;-86
2021/08/12 08:19:29;;;;;;;21.35;14.98;;;19.70;98.00;;;;;;6220084;22;20011;-84
2021/08/12 08:21:55;;;;;;;19.33;14.18;;;19.80;97.60;;;;;;6220245;22;20019;-85
2021/08/12 08:24:21;;;;;;;18.75;14.38;;;19.80;97.10;;;;;;6244967;22;20012;-85
2021/08/12 08:26:47;;;;;;;18.83;14.00;;;19.90;97.00;;;;;;6218113;22;20054;-85
2021/08/12 08:29:12;;;;;;;18.45;14.48;;;19.90;97.20;;;;;;6193974;22;20016;-85
2021/08/12 08:31:39;;;;;;;22.25;14.20;;;19.90;96.80;;;;;;6194377;22;20019;-86
2021/08/12 08:34:05;;;;;;;15.98;11.40;;;20.00;96.80;;;;;;6194961;22;20465;-86
2021/08/12 08:36:31;;;;;;;15.38;11.77;;;20.10;96.70;;;;;;6220032;22;20086;-85
2021/08/12 08:38:57;;;;;;;16.90;11.35;;;20.10;96.00;;;;;;6193738;22;20340;-86
2021/08/12 08:41:23;;;;;;;14.52;11.52;;;20.20;95.60;;;;;;6193514;22;20008;-86
2021/08/12 08:43:52;;;;;;;16.95;11.70;;;20.20;95.40;;;;;;6243136;22;20011;-85
2021/08/12 08:46:19;;;;;;;17.77;11.57;;;20.30;95.00;;;;;;6244292;22;20019;-86
2021/08/12 08:48:46;;;;;;;17.73;11.05;;;20.30;94.70;;;;;;6244397;22;20019;-85
2021/08/12 08:51:14;;;;;;;14.90;10.40;;;20.30;94.80;;;;;;6218884;22;20357;-88
2021/08/12 08:53:40;;;;;;;16.65;11.52;;;20.40;94.30;;;;;;6244729;22;20011;-84
2021/08/12 08:56:06;;;;;;;17.08;11.52;;;20.40;93.80;;;;;;6193865;22;20046;-85
2021/08/12 08:58:33;;;;;;;17.60;11.65;;;20.50;93.60;;;;;;6192262;22;20016;-87
2021/08/12 09:00:59;;;;;;;15.07;11.68;;;20.50;93.60;;;;;;6242314;22;20484;-84
2021/08/12 09:03:25;;;;;;;15.73;10.85;;;20.50;93.60;;;;;;6167465;22;20062;-85
2021/08/12 09:05:54;;;;;;;13.30;11.10;;;20.60;93.40;;;;;;6167733;22;20043;-87
2021/08/12 09:08:20;;;;;;;13.00;9.98;;;20.60;93.60;;;;;;6193883;22;20487;-84
2021/08/12 09:10:47;;;;;;;17.95;11.30;;;20.70;93.30;;;;;;6193872;22;20011;-86
2021/08/12 09:13:13;;;;;;;14.43;10.35;;;20.80;93.40;;;;;;6245297;22;20016;-84
2021/08/12 09:15:44;;;;;;;11.23;8.73;;;20.80;93.40;;;;;;6217565;22;20039;-84
2021/08/12 09:18:24;;;;;;;11.18;7.90;;;20.90;93.40;;;;;;6243859;22;20008;-84
2021/08/12 09:20:53;;;;;;;8.85;7.10;;;21.00;93.10;;;;;;6243840;22;20035;-85
2021/08/12 09:23:29;;;;;;;13.80;7.80;;;21.00;92.80;;;;;;6243059;22;20012;-86
2021/08/12 09:25:59;;;;;;;13.35;6.60;;;21.00;92.60;;;;;;6255271;22;20012;-86
2021/08/12 09:28:29;;;;;;;10.00;7.03;;;21.10;92.50;;;;;;6220308;22;20012;-86
2021/08/12 09:30:58;;;;;;;10.02;6.25;;;21.10;92.00;;;;;;6245042;22;20015;-85
2021/08/12 09:33:30;;;;;;;10.07;7.22;;;21.10;92.00;;;;;;6241221;22;20042;-85
2021/08/12 09:35:56;;;;;;;11.13;6.68;;;21.20;91.80;;;;;;6227931;22;20008;-85
2021/08/12 09:38:24;;;;;;;7.63;5.80;;;21.20;91.80;;;;;;6243126;22;20019;-86
2021/08/12 09:40:55;;;;;;;11.50;6.03;;;21.20;91.80;;;;;;6219241;22;20352;-86
2021/08/12 09:43:22;;;;;;;11.25;7.28;;;21.30;91.50;;;;;;6217316;22;20310;-85
2021/08/12 09:45:48;;;;;;;10.20;6.55;;;21.30;91.30;;;;;;6217126;22;20022;-85
2021/08/12 09:48:17;;;;;;;10.38;7.35;;;21.30;91.10;;;;;;6226885;22;20012;-84
2021/08/12 09:50:48;;;;;;;12.35;7.45;;;21.40;90.50;;;;;;6267084;22;20015;-87
2021/08/12 09:53:19;;;;;;;9.85;7.07;;;21.40;90.40;;;;;;6254258;22;20101;-84
2021/08/12 09:55:46;;;;;;;10.25;6.25;;;21.50;90.10;;;;;;6244082;22;20034;-86
2021/08/12 09:58:13;;;;;;;10.00;7.50;;;21.50;89.90;;;;;;6194087;22;20015;-86
2021/08/12 10:00:44;;;;;;;12.38;8.05;;;21.60;89.30;;;;;;6218524;22;20016;-85
2021/08/12 10:03:19;;;;;;;13.07;8.45;;;21.70;88.60;;;;;;6194331;22;20018;-85
2021/08/12 10:05:45;;;;;;;16.27;8.60;;;21.70;88.60;;;;;;6242659;22;20087;-85
2021/08/12 10:08:11;;;;;;;13.98;8.27;;;21.70;87.10;;;;;;6191884;22;20036;-86
2021/08/12 10:10:40;;;;;;;12.98;7.78;;;21.70;86.90;;;;;;6215013;22;20012;-85
2021/08/12 10:13:06;;;;;;;10.40;7.75;;;21.70;86.80;;;;;;6243558;22;20460;-86
2021/08/12 10:15:34;;;;;;;11.23;8.02;;;21.70;87.70;;;;;;6218910;22;20015;-86
2021/08/12 10:18:02;;;;;;;14.27;8.02;;;21.80;88.10;;;;;;6211906;22;20016;-87
2021/08/12 10:20:51;;;;;;;11.90;7.47;;;21.80;88.90;;;;;;6218790;22;20016;-91
2021/08/12 10:23:18;;;;;;;12.20;7.40;;;21.80;89.80;;;;;;6184529;22;20023;-88
2021/08/12 10:25:58;;;;;;;10.30;6.30;;;21.90;88.50;;;;;;6241504;22;20018;-88
2021/08/12 10:28:26;;;;;;;11.18;6.40;;;21.90;87.80;;;;;;6244144;22;20062;-88
2021/08/12 10:33:39;;;;;;;13.07;7.32;;;21.90;87.20;;;;;;6255220;22;20015;-88
2021/08/12 10:36:05;;;;;;;9.52;5.65;;;22.00;87.10;;;;;;6239788;22;20011;-88
2021/08/12 10:38:36;;;;;;;8.40;5.65;;;22.00;87.00;;;;;;6241990;22;20459;-90
2021/08/12 10:41:04;;;;;;;6.65;5.45;;;22.00;84.70;;;;;;6245796;22;20270;-90
2021/08/12 10:43:34;;;;;;;11.10;6.70;;;22.20;83.30;;;;;;6192487;22;20014;-89
2021/08/12 10:46:40;;;;;;;10.15;7.70;;;22.20;84.80;;;;;;6218599;22;20008;-88
2021/08/12 10:49:25;;;;;;;11.68;5.45;;;22.30;87.00;;;;;;6222125;22;20022;-89
2021/08/12 10:52:26;;;;;;;10.98;6.07;;;22.30;84.50;;;;;;6246272;22;20295;-88
2021/08/12 10:55:18;;;;;;;8.27;6.55;;;22.30;85.60;;;;;;6172000;22;20022;-86
2021/08/12 10:57:47;;;;;;;9.35;6.65;;;22.30;86.40;;;;;;6235842;22;20015;-93
2021/08/12 11:00:54;;;;;;;9.05;6.55;;;22.30;85.00;;;;;;6220427;22;20082;-90
2021/08/12 11:03:32;;;;;;;11.90;6.30;;;22.40;85.50;;;;;;6223016;22;20521;-90
2021/08/12 11:06:14;;;;;;;14.52;6.22;;;22.40;85.00;;;;;;6220773;22;20391;-89
2021/08/12 11:09:11;;;;;;;10.20;5.10;;;22.50;84.50;;;;;;6244289;22;20038;-89
2021/08/12 11:11:37;;;;;;;9.02;5.35;;;22.50;83.40;;;;;;6254734;22;20061;-91
2021/08/12 11:14:14;;;;;;;8.70;5.38;;;22.60;80.80;;;;;;6219569;22;20008;-88
2021/08/12 11:16:40;;;;;;;8.40;5.18;;;22.60;80.50;;;;;;6220183;22;20027;-88
2021/08/12 11:19:09;;;;;;;6.38;5.15;;;22.60;81.10;;;;;;6243709;22;20356;-87
2021/08/12 11:21:38;;;;;;;10.07;5.72;;;22.70;82.00;;;;;;6215799;22;20039;-90
2021/08/12 11:24:36;;;;;;;9.85;5.97;;;22.70;81.30;;;;;;6243155;22;20351;-87
2021/08/12 11:27:09;;;;;;;11.85;6.15;;;22.70;82.50;;;;;;6213382;22;20018;-88
2021/08/12 11:29:35;;;;;;;7.25;6.50;;;22.80;82.00;;;;;;6194758;22;20086;-85
2021/08/12 11:32:14;;;;;;;10.18;6.53;;;22.80;82.40;;;;;;6243810;22;20387;-86
2021/08/12 11:34:55;;;;;;;12.05;6.30;;;22.90;82.80;;;;;;6240808;22;20012;-87
2021/08/12 11:37:29;;;;;;;9.73;6.00;;;23.00;81.60;;;;;;6214918;22;20012;-90
2021/08/12 11:39:58;;;;;;;7.45;5.65;;;23.00;82.30;;;;;;6242484;22;20386;-87
2021/08/12 11:42:40;;;;;;;6.50;5.15;;;23.10;82.50;;;;;;6242537;22;20036;-88
2021/08/12 11:45:18;;;;;;;8.98;6.03;;;23.20;83.70;;;;;;6194175;22;20062;-89
2021/08/12 11:47:53;;;;;;;9.27;5.60;;;23.30;83.70;;;;;;6242963;22;20283;-88
2021/08/12 11:50:19;;;;;;;8.55;5.40;;;23.40;83.40;;;;;;6220554;22;20448;-91
2021/08/12 11:52:49;;;;;;;12.55;5.53;;;23.50;83.00;;;;;;6244223;22;20011;-89
2021/08/12 11:55:17;;;;;;;8.93;5.40;;;23.50;81.70;;;;;;6172246;22;20018;-89
2021/08/12 11:57:47;;;;;;;11.52;5.97;;;23.60;80.70;;;;;;6246199;22;20015;-90
2021/08/12 12:00:30;;;;;;;9.82;6.35;;;23.50;79.30;;;;;;6246329;22;20444;-88
2021/08/12 12:02:57;;;;;;;8.43;5.75;;;23.40;79.80;;;;;;6228652;22;20035;-87
2021/08/12 12:05:28;;;;;;;9.40;5.70;;;23.40;79.00;;;;;;6246213;22;20008;-89
2021/08/12 12:08:14;;;;;;;9.27;5.72;;;23.30;78.40;;;;;;6222792;22;20399;-88
2021/08/12 12:10:45;;;;;;;7.32;5.63;;;23.30;79.10;;;;;;6239162;22;20008;-89
2021/08/12 12:13:15;;;;;;;8.43;5.03;;;23.20;78.40;;;;;;6231840;22;20052;-89
2021/08/12 12:15:41;;;;;;;10.88;5.78;;;23.20;79.10;;;;;;6244137;22;20019;-90
2021/08/12 12:18:08;;;;;;;9.40;6.45;;;23.20;79.80;;;;;;6221527;22;20022;-87
2021/08/12 12:20:38;;;;;;;11.10;6.93;;;23.10;79.40;;;;;;6219041;22;20016;-88
2021/08/12 12:23:10;;;;;;;8.60;6.07;;;23.10;78.80;;;;;;6220911;22;20653;-89
2021/08/12 12:25:39;;;;;;;8.73;5.75;;;23.00;79.70;;;;;;6258613;22;20034;-88
2021/08/12 12:28:06;;;;;;;8.73;5.90;;;23.10;80.50;;;;;;6219142;22;20016;-91
2021/08/12 12:30:33;;;;;;;8.82;6.38;;;23.30;80.20;;;;;;6245728;22;20033;-89
2021/08/12 12:33:14;;;;;;;8.85;6.25;;;23.30;79.20;;;;;;6217520;22;20019;-88
2021/08/12 12:35:43;;;;;;;9.35;6.60;;;23.40;80.40;;;;;;6245307;22;20012;-88
2021/08/12 12:38:21;;;;;;;9.05;6.97;;;23.50;79.80;;;;;;6221114;22;20339;-88
2021/08/12 12:40:48;;;;;;;7.68;6.68;;;23.50;78.40;;;;;;6244783;22;20474;-88
2021/08/12 12:43:15;;;;;;;7.90;6.30;;;23.60;77.90;;;;;;6243818;22;20356;-89
2021/08/12 12:45:49;;;;;;;10.60;6.93;;;23.50;78.50;;;;;;6248850;22;20019;-88